Time;durP1;ratioP1;P1;durP2;ratioP2;P2;SDS_P1;SDS_P2;PMS_P1;PMS_P2;Temp;Humidity;BMP_temperature;BMP_pressure;BME280_temperature;BME280_humidity;BME280_pressure;Samples;Min_cycle;Max_cycle;Signal;HPM_P1;HPM_P2
2021/10/24 00:01:40;;;;;;;8.68;3.95;;;5.60;99.90;;;;;;4976354;28;20049;-90
2021/10/24 00:04:05;;;;;;;6.55;4.35;;;5.60;99.90;;;;;;4976224;28;20038;-90
2021/10/24 00:06:31;;;;;;;8.23;4.40;;;5.50;99.90;;;;;;4973093;28;20023;-90
2021/10/24 00:08:57;;;;;;;13.90;4.95;;;5.50;99.90;;;;;;4972906;28;20399;-91
2021/10/24 00:11:22;;;;;;;10.88;5.30;;;5.40;99.90;;;;;;4973050;28;20102;-91
2021/10/24 00:13:48;;;;;;;7.88;4.72;;;5.50;99.90;;;;;;4972965;28;20035;-91
2021/10/24 00:16:14;;;;;;;11.20;5.30;;;5.50;99.90;;;;;;4972742;28;20408;-91
2021/10/24 00:18:39;;;;;;;7.22;4.18;;;5.50;99.90;;;;;;4956759;28;20026;-90
2021/10/24 00:21:05;;;;;;;8.10;4.30;;;5.40;99.90;;;;;;4972787;28;20027;-91
2021/10/24 00:23:31;;;;;;;7.40;3.75;;;5.40;99.90;;;;;;4972628;28;20502;-90
2021/10/24 00:25:57;;;;;;;10.82;4.32;;;5.40;99.90;;;;;;4956646;28;20522;-90
2021/10/24 00:28:23;;;;;;;8.95;5.28;;;5.40;99.90;;;;;;4971883;28;20035;-90
2021/10/24 00:30:49;;;;;;;9.43;4.53;;;5.50;99.90;;;;;;4956654;28;20033;-91
2021/10/24 00:33:16;;;;;;;7.68;4.88;;;5.50;99.90;;;;;;4972814;28;20498;-90
2021/10/24 00:35:42;;;;;;;8.55;4.63;;;5.40;99.90;;;;;;4972290;28;20055;-90
2021/10/24 00:38:08;;;;;;;8.70;4.45;;;5.40;99.90;;;;;;4988679;28;20030;-91
2021/10/24 00:40:33;;;;;;;7.97;4.80;;;5.40;99.90;;;;;;4972504;28;20111;-91
2021/10/24 00:42:59;;;;;;;5.57;3.92;;;5.40;99.90;;;;;;4956344;28;20050;-91
2021/10/24 00:45:25;;;;;;;5.63;3.85;;;5.40;99.90;;;;;;4972421;28;20023;-87
2021/10/24 00:47:52;;;;;;;8.65;4.20;;;5.30;99.90;;;;;;4972011;28;20073;-91
2021/10/24 00:50:18;;;;;;;10.32;4.57;;;5.30;99.90;;;;;;4988597;28;20030;-91
2021/10/24 00:52:45;;;;;;;7.47;4.43;;;5.30;99.90;;;;;;4973071;28;20039;-91
2021/10/24 00:55:12;;;;;;;9.23;5.13;;;5.30;99.90;;;;;;4999533;28;20037;-89
2021/10/24 00:57:38;;;;;;;6.20;3.95;;;5.30;99.90;;;;;;5009656;28;20034;-91
2021/10/24 01:00:08;;;;;;;5.40;3.60;;;5.30;99.90;;;;;;4975488;28;20030;-91
2021/10/24 01:02:35;;;;;;;6.82;4.47;;;5.40;99.90;;;;;;4975460;28;20046;-91
2021/10/24 01:05:05;;;;;;;8.45;4.88;;;5.40;99.90;;;;;;4975803;28;20409;-92
2021/10/24 01:07:32;;;;;;;6.88;4.00;;;5.40;99.90;;;;;;4991336;28;20034;-92
2021/10/24 01:09:58;;;;;;;9.07;4.47;;;5.30;99.90;;;;;;4991366;28;20030;-91
2021/10/24 01:12:25;;;;;;;7.15;4.13;;;5.40;99.90;;;;;;5008675;28;20056;-89
2021/10/24 01:14:51;;;;;;;7.05;3.65;;;5.40;99.90;;;;;;5007472;28;20033;-90
2021/10/24 01:17:17;;;;;;;6.57;3.92;;;5.40;99.90;;;;;;4991067;28;20042;-91
2021/10/24 01:19:43;;;;;;;7.57;3.95;;;5.30;99.90;;;;;;4991398;28;20038;-91
2021/10/24 01:22:09;;;;;;;7.93;4.40;;;5.20;99.90;;;;;;4975532;28;20034;-91
2021/10/24 01:24:35;;;;;;;10.32;3.97;;;5.20;99.90;;;;;;4975106;28;20037;-90
2021/10/24 01:27:01;;;;;;;6.53;4.03;;;5.20;99.90;;;;;;4991107;28;20031;-91
2021/10/24 01:29:27;;;;;;;8.40;4.22;;;5.10;99.90;;;;;;4975397;28;20030;-91
2021/10/24 01:31:53;;;;;;;5.72;3.90;;;5.10;99.90;;;;;;4974908;28;20089;-91
2021/10/24 01:34:21;;;;;;;7.38;4.00;;;5.10;99.90;;;;;;4990853;28;20026;-91
2021/10/24 01:36:47;;;;;;;7.32;4.15;;;5.10;99.90;;;;;;4990603;28;20069;-91
2021/10/24 01:39:13;;;;;;;5.63;3.25;;;5.10;99.90;;;;;;4989945;28;20089;-91
2021/10/24 01:41:38;;;;;;;7.43;4.00;;;5.10;99.90;;;;;;4974699;28;20053;-92
2021/10/24 01:44:05;;;;;;;7.35;4.03;;;5.10;99.90;;;;;;4990746;28;20036;-91
2021/10/24 01:46:31;;;;;;;7.82;3.83;;;5.00;99.90;;;;;;4990629;28;20034;-91
2021/10/24 01:48:58;;;;;;;8.30;4.43;;;5.10;99.90;;;;;;4990852;28;20080;-91
2021/10/24 01:51:24;;;;;;;7.13;3.95;;;5.10;99.90;;;;;;4974743;28;20065;-91
2021/10/24 01:53:50;;;;;;;6.20;3.92;;;5.00;99.90;;;;;;4974701;28;20053;-91
2021/10/24 01:56:18;;;;;;;8.70;3.85;;;4.90;99.90;;;;;;4955440;28;20034;-90
2021/10/24 01:58:44;;;;;;;8.57;4.30;;;4.90;99.90;;;;;;4987114;28;20031;-89
2021/10/24 02:01:11;;;;;;;9.38;4.20;;;4.80;99.90;;;;;;4971001;28;20037;-91
2021/10/24 02:03:55;;;;;;;6.65;3.85;;;4.80;99.90;;;;;;4973942;28;20050;-91
2021/10/24 02:06:30;;;;;;;6.60;4.20;;;4.80;99.90;;;;;;4974639;28;20030;-91
2021/10/24 02:08:56;;;;;;;7.45;4.55;;;4.80;99.90;;;;;;4974542;28;20037;-91
2021/10/24 02:11:21;;;;;;;7.38;3.83;;;4.80;99.90;;;;;;4990148;28;20031;-91
2021/10/24 02:13:49;;;;;;;6.35;4.05;;;4.70;99.90;;;;;;4974675;28;20038;-90
2021/10/24 02:16:15;;;;;;;6.22;4.13;;;4.80;99.90;;;;;;4974129;28;20026;-90
2021/10/24 02:18:45;;;;;;;6.75;4.20;;;4.80;99.90;;;;;;4990248;28;20041;-89
2021/10/24 02:21:11;;;;;;;7.45;3.95;;;4.80;99.90;;;;;;4973901;28;20031;-90
2021/10/24 02:23:38;;;;;;;6.70;3.80;;;4.70;99.90;;;;;;4990470;28;20045;-91
2021/10/24 02:26:05;;;;;;;7.43;3.97;;;4.80;99.90;;;;;;4990009;28;20090;-91
2021/10/24 02:28:30;;;;;;;7.88;4.00;;;4.80;99.90;;;;;;4973838;28;20057;-91
2021/10/24 02:30:56;;;;;;;5.95;2.88;;;4.70;99.90;;;;;;4989959;28;20126;-91
2021/10/24 02:33:57;;;;;;;7.05;3.50;;;4.70;99.90;;;;;;5002531;28;20442;-92
2021/10/24 02:36:43;;;;;;;8.30;3.38;;;4.70;99.90;;;;;;5003292;28;20038;-91
2021/10/24 02:39:09;;;;;;;9.52;3.92;;;4.70;99.90;;;;;;4990203;28;20030;-92
2021/10/24 02:41:37;;;;;;;9.82;4.05;;;4.80;99.90;;;;;;4973771;28;20034;-90
2021/10/24 02:44:03;;;;;;;7.80;3.95;;;4.70;99.90;;;;;;5006022;28;20045;-91
2021/10/24 02:46:35;;;;;;;7.55;3.80;;;4.80;99.90;;;;;;4973870;28;20041;-92
2021/10/24 02:49:08;;;;;;;7.03;3.33;;;4.70;99.90;;;;;;4990477;28;20050;-92
2021/10/24 02:51:37;;;;;;;7.38;3.63;;;4.80;99.90;;;;;;4989086;28;20026;-92
2021/10/24 02:54:03;;;;;;;7.40;4.05;;;4.80;99.90;;;;;;4988209;28;20030;-91
2021/10/24 02:56:29;;;;;;;7.70;3.97;;;4.70;99.90;;;;;;4969961;28;20034;-91
2021/10/24 02:58:55;;;;;;;8.45;4.22;;;4.70;99.90;;;;;;4954098;28;20037;-91
2021/10/24 03:01:21;;;;;;;6.13;3.50;;;4.80;99.90;;;;;;4969887;28;20104;-91
2021/10/24 03:03:46;;;;;;;6.45;3.45;;;4.80;99.90;;;;;;4970065;28;20456;-91
2021/10/24 03:06:13;;;;;;;5.70;3.50;;;4.80;99.90;;;;;;4971523;28;20035;-92
2021/10/24 03:08:39;;;;;;;5.90;3.65;;;4.70;99.90;;;;;;4973307;28;20033;-92
2021/10/24 03:11:05;;;;;;;6.70;3.63;;;4.70;99.90;;;;;;4989265;28;20035;-91
2021/10/24 03:13:31;;;;;;;5.47;3.28;;;4.70;99.90;;;;;;4989089;28;20030;-91
2021/10/24 03:15:57;;;;;;;5.50;2.90;;;4.80;99.90;;;;;;4989158;28;20031;-92
2021/10/24 03:18:22;;;;;;;5.93;3.10;;;4.70;99.90;;;;;;4972949;28;20042;-92
2021/10/24 03:20:48;;;;;;;5.80;3.35;;;4.80;99.90;;;;;;4989249;28;20084;-91
2021/10/24 03:23:14;;;;;;;7.07;3.33;;;4.80;99.90;;;;;;4972982;28;20035;-91
2021/10/24 03:25:40;;;;;;;7.47;4.05;;;4.70;99.90;;;;;;4972990;28;20030;-92
2021/10/24 03:28:05;;;;;;;7.30;3.85;;;4.70;99.90;;;;;;4988947;28;20447;-92
2021/10/24 03:30:31;;;;;;;6.13;3.53;;;4.70;99.90;;;;;;4973235;28;20035;-92
2021/10/24 03:32:58;;;;;;;6.65;3.60;;;4.70;99.90;;;;;;4973117;28;20045;-92
2021/10/24 03:35:24;;;;;;;5.40;3.20;;;4.60;99.90;;;;;;4972945;28;20058;-91
2021/10/24 03:37:50;;;;;;;7.20;4.03;;;4.60;99.90;;;;;;4988977;28;20090;-91
2021/10/24 03:40:17;;;;;;;4.47;2.95;;;4.50;99.90;;;;;;4973066;28;20065;-91
2021/10/24 03:42:42;;;;;;;6.63;3.70;;;4.50;99.90;;;;;;4972914;28;20042;-92
2021/10/24 03:45:28;;;;;;;6.63;2.60;;;4.50;99.90;;;;;;5005121;28;20026;-90
2021/10/24 03:47:54;;;;;;;7.25;3.58;;;4.50;99.90;;;;;;4949006;29;20055;-92
2021/10/24 03:50:20;;;;;;;5.03;3.63;;;4.40;99.90;;;;;;4949240;29;20043;-91
2021/10/24 03:52:47;;;;;;;5.68;3.28;;;4.40;99.90;;;;;;4965491;28;20550;-91
2021/10/24 03:55:12;;;;;;;7.10;3.55;;;4.30;99.90;;;;;;4954640;29;20027;-91
2021/10/24 03:57:39;;;;;;;5.70;3.13;;;4.30;99.90;;;;;;4930362;29;20036;-91
2021/10/24 04:00:07;;;;;;;5.20;3.45;;;4.30;99.90;;;;;;4930237;29;20046;-91
2021/10/24 04:02:55;;;;;;;7.30;3.53;;;4.30;99.90;;;;;;4932329;29;20043;-91
2021/10/24 04:05:23;;;;;;;5.50;3.13;;;4.20;99.90;;;;;;4933942;29;20035;-92
2021/10/24 04:07:49;;;;;;;6.20;3.45;;;4.10;99.90;;;;;;4947884;29;20031;-91
2021/10/24 04:10:17;;;;;;;5.32;2.85;;;4.00;99.90;;;;;;4968786;29;20454;-91
2021/10/24 04:12:44;;;;;;;6.75;4.32;;;4.10;99.90;;;;;;4952938;29;20561;-91
2021/10/24 04:15:10;;;;;;;8.30;3.53;;;4.00;99.90;;;;;;4968271;29;20424;-91
2021/10/24 04:17:37;;;;;;;6.35;4.13;;;3.90;99.90;;;;;;4968782;29;20038;-91
2021/10/24 04:20:08;;;;;;;6.38;3.78;;;3.90;99.90;;;;;;4952828;29;20091;-91
2021/10/24 04:22:35;;;;;;;5.60;3.17;;;3.90;99.90;;;;;;4936679;29;20047;-91
2021/10/24 04:25:06;;;;;;;4.13;2.60;;;3.80;99.90;;;;;;4957017;28;20038;-91
2021/10/24 04:27:33;;;;;;;5.63;2.80;;;3.80;99.90;;;;;;4992243;28;20090;-91
2021/10/24 04:30:00;;;;;;;10.48;3.45;;;3.70;99.90;;;;;;4992020;28;20038;-91
2021/10/24 04:32:26;;;;;;;7.00;3.20;;;3.60;99.90;;;;;;4976231;28;20030;-91
2021/10/24 04:34:52;;;;;;;5.63;3.47;;;3.60;99.90;;;;;;4975526;28;20053;-91
2021/10/24 04:37:19;;;;;;;5.88;3.97;;;3.60;99.90;;;;;;4975733;28;20050;-91
2021/10/24 04:39:47;;;;;;;5.82;3.10;;;3.60;99.90;;;;;;4991713;28;20046;-91
2021/10/24 04:42:12;;;;;;;5.40;2.85;;;3.60;99.90;;;;;;4991807;28;20042;-91
2021/10/24 04:44:39;;;;;;;7.78;3.55;;;3.60;99.90;;;;;;4975569;28;20026;-92
2021/10/24 04:47:05;;;;;;;5.65;2.80;;;3.60;99.90;;;;;;4975398;28;20049;-91
2021/10/24 04:49:31;;;;;;;5.43;3.25;;;3.50;99.90;;;;;;4991777;28;20026;-90
2021/10/24 04:51:57;;;;;;;8.25;3.67;;;3.50;99.90;;;;;;4991911;28;20478;-91
2021/10/24 04:54:23;;;;;;;6.28;2.63;;;3.50;99.90;;;;;;4992627;28;20508;-90
2021/10/24 04:56:51;;;;;;;6.38;3.42;;;3.30;99.90;;;;;;5008119;28;20026;-91
2021/10/24 04:59:18;;;;;;;5.15;2.83;;;3.30;99.90;;;;;;5008045;28;20030;-91
2021/10/24 05:01:46;;;;;;;7.43;3.00;;;3.30;99.90;;;;;;4991437;28;20045;-91
2021/10/24 05:04:13;;;;;;;7.00;3.38;;;3.30;99.90;;;;;;4991453;28;20066;-91
2021/10/24 05:06:39;;;;;;;7.35;3.20;;;3.40;99.90;;;;;;4991921;28;20426;-92
2021/10/24 05:09:06;;;;;;;7.70;3.47;;;3.50;99.90;;;;;;4975541;28;20038;-91
2021/10/24 05:11:33;;;;;;;4.93;2.50;;;3.40;99.90;;;;;;4975782;28;20026;-90
2021/10/24 05:14:07;;;;;;;4.97;2.58;;;3.40;99.90;;;;;;4991298;28;20041;-92
2021/10/24 05:16:33;;;;;;;5.70;3.22;;;3.30;99.90;;;;;;4989024;28;20032;-91
2021/10/24 05:18:59;;;;;;;6.05;3.50;;;3.30;99.90;;;;;;4991155;28;20027;-91
2021/10/24 05:21:25;;;;;;;5.57;3.05;;;3.30;99.90;;;;;;4991303;28;20062;-91
2021/10/24 05:23:51;;;;;;;4.80;3.17;;;3.40;99.90;;;;;;4991307;28;20034;-92
2021/10/24 05:26:17;;;;;;;5.38;3.33;;;3.30;99.90;;;;;;4974653;28;20050;-92
2021/10/24 05:28:42;;;;;;;5.90;2.95;;;3.30;99.90;;;;;;5007295;28;20098;-91
2021/10/24 05:31:09;;;;;;;5.82;3.40;;;3.30;99.90;;;;;;4990966;28;20034;-90
2021/10/24 05:33:39;;;;;;;6.85;3.72;;;3.30;99.90;;;;;;4975831;28;20031;-92
2021/10/24 05:36:26;;;;;;;6.40;2.95;;;3.20;99.90;;;;;;4993793;28;20031;-91
2021/10/24 05:38:51;;;;;;;5.68;2.92;;;3.20;99.90;;;;;;4990888;28;20035;-91
2021/10/24 05:41:27;;;;;;;6.25;2.85;;;3.20;99.90;;;;;;4991009;28;20046;-92
2021/10/24 05:43:55;;;;;;;6.50;3.90;;;3.20;99.90;;;;;;5007230;28;20087;-92
2021/10/24 05:46:21;;;;;;;8.75;3.20;;;3.10;99.90;;;;;;4973995;28;20093;-91
2021/10/24 05:48:47;;;;;;;7.15;3.38;;;3.10;99.90;;;;;;4991027;28;20034;-91
2021/10/24 05:51:23;;;;;;;4.65;2.45;;;3.10;99.90;;;;;;4990897;28;20034;-91
2021/10/24 05:53:49;;;;;;;7.88;3.97;;;3.10;99.90;;;;;;4991325;28;20027;-91
2021/10/24 05:56:24;;;;;;;7.30;3.08;;;3.10;99.90;;;;;;4971367;28;20034;-91
2021/10/24 05:58:50;;;;;;;4.68;2.45;;;3.10;99.90;;;;;;4987968;28;20033;-92
2021/10/24 06:01:57;;;;;;;5.78;3.25;;;3.10;99.90;;;;;;4987118;28;20045;-91
2021/10/24 06:04:48;;;;;;;6.57;3.33;;;3.00;99.90;;;;;;4987866;28;20050;-91
2021/10/24 06:07:27;;;;;;;4.22;2.47;;;2.90;99.90;;;;;;4986125;28;20034;-91
2021/10/24 06:09:56;;;;;;;5.32;2.95;;;2.90;99.90;;;;;;4987797;28;20518;-91
2021/10/24 06:12:45;;;;;;;7.07;4.10;;;2.90;99.90;;;;;;4987478;28;20041;-90
2021/10/24 06:15:12;;;;;;;7.18;3.00;;;2.90;99.90;;;;;;4970487;28;20045;-92
2021/10/24 06:17:39;;;;;;;6.07;3.20;;;2.80;99.90;;;;;;4970706;28;20023;-91
2021/10/24 06:20:09;;;;;;;7.55;3.25;;;2.80;99.90;;;;;;4971524;28;20035;-92
2021/10/24 06:22:35;;;;;;;6.05;3.22;;;2.80;99.90;;;;;;4987218;28;20046;-92
2021/10/24 06:25:05;;;;;;;7.43;3.13;;;2.80;99.90;;;;;;4954812;28;20038;-92
2021/10/24 06:27:34;;;;;;;7.10;2.97;;;2.70;99.90;;;;;;4970353;28;20035;-91
2021/10/24 06:30:00;;;;;;;5.47;2.85;;;2.70;99.90;;;;;;4985742;28;20038;-91
2021/10/24 06:32:44;;;;;;;8.30;3.47;;;2.70;99.90;;;;;;4987317;28;20069;-91
2021/10/24 06:35:30;;;;;;;5.35;3.15;;;2.70;99.90;;;;;;4986121;28;20521;-90
2021/10/24 06:38:17;;;;;;;6.03;3.08;;;2.70;99.90;;;;;;4985735;28;20042;-92
2021/10/24 06:40:44;;;;;;;6.45;2.50;;;2.70;99.90;;;;;;4969847;28;20118;-90
2021/10/24 06:43:11;;;;;;;7.85;3.83;;;2.70;99.90;;;;;;4986016;28;20086;-89
2021/10/24 06:45:55;;;;;;;5.75;2.80;;;2.70;99.90;;;;;;4985023;23;20081;-92
2021/10/24 06:48:52;;;;;;;5.70;3.25;;;2.70;99.90;;;;;;5023745;28;20076;-92
2021/10/24 06:51:20;;;;;;;6.78;2.45;;;2.70;99.90;;;;;;5012359;28;20091;-93
2021/10/24 06:54:04;;;;;;;9.13;3.72;;;2.80;99.90;;;;;;5031023;28;20060;-93
2021/10/24 06:56:50;;;;;;;8.68;2.72;;;2.80;99.90;;;;;;5031230;28;20044;-91
2021/10/24 06:59:44;;;;;;;6.13;2.97;;;3.00;99.90;;;;;;5032071;28;20025;-91
2021/10/24 07:02:32;;;;;;;7.43;3.03;;;3.00;99.90;;;;;;5031565;28;20080;-92
2021/10/24 07:05:19;;;;;;;7.22;3.17;;;3.10;99.90;;;;;;5031103;28;20033;-83
2021/10/24 07:07:46;;;;;;;5.80;3.08;;;3.00;99.90;;;;;;4997674;28;20507;-92
2021/10/24 07:10:13;;;;;;;8.57;3.38;;;3.10;99.90;;;;;;5008948;28;20025;-90
2021/10/24 07:12:42;;;;;;;7.93;3.50;;;3.30;99.90;;;;;;5008802;28;20030;-92
2021/10/24 07:15:10;;;;;;;8.15;3.70;;;3.40;99.90;;;;;;5008304;28;20037;-92
2021/10/24 07:17:38;;;;;;;9.60;3.97;;;3.60;99.90;;;;;;5008587;28;20060;-93
2021/10/24 07:20:05;;;;;;;7.30;4.40;;;3.70;99.90;;;;;;4992040;28;20017;-91
2021/10/24 07:22:38;;;;;;;6.38;4.13;;;3.70;99.90;;;;;;4992321;28;20054;-93
2021/10/24 07:25:27;;;;;;;7.53;3.95;;;3.80;99.90;;;;;;5023135;28;20033;-93
2021/10/24 07:27:53;;;;;;;9.80;5.13;;;4.10;99.90;;;;;;4991636;28;20030;-93
2021/10/24 07:30:19;;;;;;;10.40;5.25;;;4.10;99.90;;;;;;5008124;28;20061;-93
2021/10/24 07:32:55;;;;;;;10.77;4.93;;;4.30;99.90;;;;;;4993005;28;20034;-93
2021/10/24 07:35:43;;;;;;;10.55;5.45;;;4.40;99.90;;;;;;5011153;28;20508;-94
2021/10/24 07:38:17;;;;;;;9.60;6.28;;;4.60;99.90;;;;;;5010093;28;20109;-93
2021/10/24 07:40:51;;;;;;;11.02;5.57;;;4.70;99.90;;;;;;4996206;28;20077;-93
2021/10/24 07:43:24;;;;;;;12.60;6.28;;;4.80;99.90;;;;;;5012542;28;20095;-92
2021/10/24 07:45:53;;;;;;;12.73;5.53;;;4.90;99.90;;;;;;5011963;28;20029;-91
2021/10/24 07:48:22;;;;;;;11.20;6.13;;;5.00;99.90;;;;;;5028237;28;20121;-94
2021/10/24 07:50:50;;;;;;;10.95;5.70;;;5.00;99.90;;;;;;5011817;28;20022;-94
2021/10/24 07:53:26;;;;;;;12.15;6.15;;;5.10;99.90;;;;;;5013209;28;20442;-92
2021/10/24 07:55:57;;;;;;;12.55;6.32;;;5.30;99.90;;;;;;5011617;28;20026;-92
2021/10/24 07:58:41;;;;;;;10.43;6.43;;;5.40;99.90;;;;;;5034077;28;20037;-92
2021/10/24 08:01:07;;;;;;;10.40;6.03;;;5.40;99.90;;;;;;5014889;28;20033;-90
2021/10/24 08:03:33;;;;;;;12.00;6.30;;;5.60;99.90;;;;;;5014931;28;20568;-90
2021/10/24 08:06:01;;;;;;;9.30;5.78;;;5.70;99.90;;;;;;5031021;28;20032;-90
2021/10/24 08:08:27;;;;;;;10.63;5.05;;;5.80;99.90;;;;;;5011459;28;20044;-92
2021/10/24 08:10:53;;;;;;;13.05;6.15;;;5.90;99.90;;;;;;4995294;28;20068;-92
2021/10/24 08:13:20;;;;;;;10.88;5.60;;;6.00;99.90;;;;;;4995273;28;20033;-92
2021/10/24 08:15:48;;;;;;;16.63;6.72;;;6.10;99.90;;;;;;5011599;28;20048;-91
2021/10/24 08:18:14;;;;;;;16.58;7.07;;;6.20;99.90;;;;;;5011230;28;20061;-89
2021/10/24 08:20:58;;;;;;;10.10;5.75;;;6.30;99.90;;;;;;5019901;28;20040;-89
2021/10/24 08:23:25;;;;;;;13.57;6.55;;;6.50;99.90;;;;;;5015420;28;20041;-89
2021/10/24 08:25:53;;;;;;;9.70;5.10;;;6.60;99.90;;;;;;5014806;28;20026;-90
2021/10/24 08:28:20;;;;;;;13.43;5.97;;;6.70;99.90;;;;;;5030547;28;20107;-90
2021/10/24 08:31:01;;;;;;;12.43;5.97;;;6.80;99.90;;;;;;5032928;28;20033;-90
2021/10/24 08:33:34;;;;;;;12.52;4.93;;;7.00;99.90;;;;;;5005250;28;20113;-90
2021/10/24 08:36:01;;;;;;;11.48;5.40;;;7.10;99.90;;;;;;5017378;28;20058;-93
2021/10/24 08:38:28;;;;;;;7.72;4.15;;;7.20;99.90;;;;;;5027377;28;20040;-89
2021/10/24 08:40:56;;;;;;;7.80;3.88;;;7.40;99.90;;;;;;5014062;28;20158;-89
2021/10/24 08:43:31;;;;;;;8.18;4.63;;;7.50;99.90;;;;;;5008056;28;20029;-87
2021/10/24 08:46:01;;;;;;;13.20;4.90;;;7.60;99.90;;;;;;5011643;28;20037;-91
2021/10/24 08:48:26;;;;;;;9.88;5.05;;;7.60;99.90;;;;;;5006557;28;20041;-91
2021/10/24 08:50:52;;;;;;;11.10;5.28;;;7.70;99.90;;;;;;5015067;28;20088;-87
2021/10/24 08:53:23;;;;;;;9.07;4.75;;;7.80;99.90;;;;;;5012071;28;20309;-92
2021/10/24 08:55:48;;;;;;;9.70;5.22;;;7.90;99.90;;;;;;5010333;28;20030;-91
2021/10/24 08:58:15;;;;;;;9.40;4.93;;;8.00;99.90;;;;;;5017636;28;20122;-91
2021/10/24 09:00:42;;;;;;;9.93;5.05;;;8.20;99.90;;;;;;5021354;28;20040;-88
2021/10/24 09:03:11;;;;;;;8.95;4.95;;;8.20;99.90;;;;;;5019100;28;20097;-91
2021/10/24 09:05:46;;;;;;;10.48;4.22;;;8.30;99.90;;;;;;5021370;28;20038;-89
2021/10/24 09:08:17;;;;;;;10.40;4.35;;;8.50;99.90;;;;;;5022238;28;20102;-89
2021/10/24 09:10:48;;;;;;;9.43;4.22;;;8.60;99.90;;;;;;5024179;28;20059;-91
2021/10/24 09:13:17;;;;;;;11.57;4.28;;;8.60;99.90;;;;;;5006694;28;20324;-89
2021/10/24 09:15:46;;;;;;;;;;;8.70;99.90;;;;;;5006065;28;20026;-91
2021/10/24 09:18:13;;;;;;;6.55;3.45;;;8.90;99.90;;;;;;5033922;28;19906;-89
2021/10/24 09:20:39;;;;;;;8.73;4.22;;;9.00;99.90;;;;;;5022925;28;20045;-90
2021/10/24 09:23:10;;;;;;;9.23;3.97;;;8.90;99.90;;;;;;5019792;28;20128;-90
2021/10/24 09:25:55;;;;;;;10.32;4.35;;;9.00;99.90;;;;;;5009991;28;20515;-89
2021/10/24 09:28:23;;;;;;;10.38;5.20;;;9.10;99.90;;;;;;5015449;28;20505;-90
2021/10/24 09:31:04;;;;;;;6.78;4.10;;;9.20;99.90;;;;;;5019930;28;20029;-90
2021/10/24 09:33:44;;;;;;;7.80;4.47;;;9.30;99.90;;;;;;4990108;28;20053;-90
2021/10/24 09:36:10;;;;;;;;;;;9.50;99.90;;;;;;5008918;28;20079;-88
2021/10/24 09:39:08;;;;;;;8.52;3.08;;;9.50;99.90;;;;;;5015689;28;20044;-90
2021/10/24 09:41:34;;;;;;;8.73;3.90;;;9.60;99.90;;;;;;4992782;28;20026;-91
2021/10/24 09:44:16;;;;;;;7.13;3.97;;;9.50;99.90;;;;;;4993314;28;20548;-89
2021/10/24 09:46:59;;;;;;;8.10;3.72;;;9.80;99.90;;;;;;5007287;28;20045;-90
2021/10/24 09:49:25;;;;;;;8.52;3.40;;;9.90;99.90;;;;;;5032303;28;20032;-90
2021/10/24 09:51:54;;;;;;;7.82;3.67;;;9.90;99.90;;;;;;5040498;28;20033;-90
2021/10/24 09:54:27;;;;;;;6.40;4.20;;;9.90;99.90;;;;;;5048420;28;20033;-90
2021/10/24 09:56:54;;;;;;;7.38;3.47;;;10.00;99.90;;;;;;5035539;28;20033;-90
2021/10/24 09:59:22;;;;;;;9.18;4.20;;;10.00;99.90;;;;;;5017403;28;20112;-90
2021/10/24 10:01:50;;;;;;;10.52;4.70;;;10.10;99.90;;;;;;5026429;28;20092;-87
2021/10/24 10:04:17;;;;;;;8.27;3.72;;;10.10;99.90;;;;;;5028797;28;20045;-89
2021/10/24 10:06:44;;;;;;;5.57;2.58;;;10.30;99.90;;;;;;5017941;28;20048;-89
2021/10/24 10:09:13;;;;;;;6.93;3.75;;;10.40;99.90;;;;;;5032341;28;20049;-89
2021/10/24 10:11:59;;;;;;;8.48;3.78;;;10.40;99.90;;;;;;5032053;28;20033;-88
2021/10/24 10:14:28;;;;;;;6.85;3.95;;;10.20;99.90;;;;;;5031363;28;20067;-90
2021/10/24 10:17:02;;;;;;;5.03;3.25;;;10.30;99.90;;;;;;5031644;28;20036;-89
2021/10/24 10:19:31;;;;;;;7.88;3.33;;;10.50;99.90;;;;;;5031668;28;20040;-89
2021/10/24 10:22:17;;;;;;;8.57;4.25;;;10.50;99.90;;;;;;5029901;28;20048;-89
2021/10/24 10:24:44;;;;;;;7.38;3.80;;;10.60;99.90;;;;;;5010804;28;20033;-88
2021/10/24 10:27:34;;;;;;;6.57;2.42;;;10.80;99.90;;;;;;5035989;28;20031;-88
2021/10/24 10:30:07;;;;;;;7.90;3.97;;;10.80;99.90;;;;;;5010359;28;20461;-90
2021/10/24 10:32:39;;;;;;;5.88;3.17;;;10.80;99.90;;;;;;5025788;28;20483;-88
2021/10/24 10:35:20;;;;;;;10.07;4.13;;;10.90;99.90;;;;;;5033664;28;20028;-90
2021/10/24 10:37:55;;;;;;;9.27;4.15;;;10.90;99.90;;;;;;5047471;28;20036;-91
2021/10/24 10:40:28;;;;;;;9.15;4.68;;;11.10;99.90;;;;;;5010809;28;20056;-90
2021/10/24 10:43:11;;;;;;;6.18;4.22;;;11.00;99.90;;;;;;5019061;28;20044;-90
2021/10/24 10:45:46;;;;;;;6.50;3.65;;;11.20;99.90;;;;;;5029256;28;20030;-90
2021/10/24 10:48:18;;;;;;;7.25;3.88;;;11.30;99.90;;;;;;5017048;28;20084;-90
2021/10/24 10:50:46;;;;;;;5.00;3.15;;;11.30;99.90;;;;;;5043377;28;20067;-90
2021/10/24 10:53:32;;;;;;;7.90;4.20;;;11.30;99.90;;;;;;5022512;28;20029;-88
2021/10/24 10:56:05;;;;;;;6.82;3.47;;;11.30;99.90;;;;;;5028368;28;20048;-90
2021/10/24 10:58:35;;;;;;;6.32;3.80;;;11.30;99.90;;;;;;5036255;28;20033;-91
2021/10/24 11:01:02;;;;;;;6.78;4.28;;;11.40;99.90;;;;;;5033657;28;20042;-92
2021/10/24 11:03:47;;;;;;;6.35;3.20;;;11.60;99.90;;;;;;5021251;28;20048;-90
2021/10/24 11:06:36;;;;;;;7.60;2.83;;;11.80;99.90;;;;;;5033645;28;20017;-90
2021/10/24 11:09:10;;;;;;;8.63;4.10;;;11.80;99.90;;;;;;5012905;28;20041;-91
2021/10/24 11:11:37;;;;;;;6.20;3.67;;;11.80;99.90;;;;;;5022221;28;20043;-90
2021/10/24 11:14:12;;;;;;;8.38;3.80;;;11.50;99.90;;;;;;5018315;28;20052;-91
2021/10/24 11:16:50;;;;;;;7.32;3.00;;;11.80;99.90;;;;;;5035564;28;20378;-90
2021/10/24 11:19:38;;;;;;;8.35;4.07;;;11.90;99.90;;;;;;5040656;28;20025;-89
2021/10/24 11:22:17;;;;;;;5.15;2.80;;;11.80;99.90;;;;;;5026686;28;20033;-89
2021/10/24 11:24:52;;;;;;;5.72;2.95;;;12.00;99.90;;;;;;5025795;28;20501;-90
2021/10/24 11:27:22;;;;;;;6.03;2.72;;;12.10;99.90;;;;;;5036066;28;20069;-90
2021/10/24 11:29:55;;;;;;;5.05;3.08;;;12.20;99.90;;;;;;5044082;28;20084;-89
2021/10/24 11:32:26;;;;;;;6.95;2.80;;;12.30;99.90;;;;;;5020152;28;20090;-90
2021/10/24 11:34:54;;;;;;;5.60;3.08;;;12.10;99.90;;;;;;5029752;28;20096;-91
2021/10/24 11:37:45;;;;;;;7.80;3.50;;;12.30;99.90;;;;;;5033857;28;20025;-91
2021/10/24 11:40:16;;;;;;;5.82;2.70;;;12.30;99.90;;;;;;5006856;28;20053;-91
2021/10/24 11:43:04;;;;;;;4.40;2.67;;;12.20;99.90;;;;;;5039300;28;20040;-91
2021/10/24 11:45:37;;;;;;;5.13;3.20;;;12.30;99.90;;;;;;5010546;28;20071;-89
2021/10/24 11:48:09;;;;;;;7.20;2.78;;;12.20;99.90;;;;;;5002942;28;20037;-89
2021/10/24 11:50:37;;;;;;;7.15;3.35;;;12.30;99.90;;;;;;5021792;28;20469;-90
2021/10/24 11:53:04;;;;;;;5.20;2.35;;;12.00;99.90;;;;;;5026377;28;20021;-89
2021/10/24 11:55:29;;;;;;;5.95;3.00;;;12.20;99.90;;;;;;5015952;28;20040;-91
2021/10/24 11:58:07;;;;;;;5.15;3.00;;;12.30;99.90;;;;;;5022875;28;20164;-90
2021/10/24 12:00:49;;;;;;;10.20;4.07;;;12.20;99.90;;;;;;5015024;28;20051;-90
2021/10/24 12:03:28;;;;;;;7.22;3.10;;;12.30;99.90;;;;;;5016926;28;20057;-91
2021/10/24 12:05:55;;;;;;;6.20;2.60;;;12.40;99.90;;;;;;5025369;28;20033;-89
2021/10/24 12:08:41;;;;;;;8.32;2.70;;;12.50;99.90;;;;;;5040917;28;20179;-91
2021/10/24 12:11:11;;;;;;;5.18;2.00;;;12.50;99.90;;;;;;5020548;28;20021;-88
2021/10/24 12:13:37;;;;;;;6.90;2.92;;;12.50;99.90;;;;;;5016941;28;20040;-90
2021/10/24 12:16:26;;;;;;;4.57;2.15;;;12.50;99.90;;;;;;5018312;28;20408;-90
2021/10/24 12:19:16;;;;;;;4.47;2.50;;;12.70;99.90;;;;;;5040849;28;20041;-90
2021/10/24 12:22:06;;;;;;;4.78;2.20;;;12.70;99.90;;;;;;5035519;28;20064;-90
2021/10/24 12:24:46;;;;;;;5.55;2.70;;;12.80;99.90;;;;;;5041934;28;20191;-90
2021/10/24 12:27:33;;;;;;;9.13;2.67;;;12.80;99.90;;;;;;5029146;28;20025;-90
2021/10/24 12:30:06;;;;;;;6.95;2.85;;;12.70;99.90;;;;;;5045865;28;20021;-89
2021/10/24 12:32:32;;;;;;;5.38;2.53;;;12.60;99.90;;;;;;5028128;28;20036;-92
2021/10/24 12:35:02;;;;;;;4.80;2.50;;;12.70;99.90;;;;;;5036442;28;20052;-90
2021/10/24 12:37:28;;;;;;;;;;;12.80;99.90;;;;;;5042241;28;20025;-92
2021/10/24 12:40:13;;;;;;;3.45;1.50;;;12.80;99.90;;;;;;5036192;28;20403;-92
2021/10/24 12:42:40;;;;;;;4.35;1.70;;;12.80;99.90;;;;;;5050025;28;20047;-93
2021/10/24 12:45:26;;;;;;;8.02;2.90;;;12.80;99.90;;;;;;5033511;28;20029;-93
2021/10/24 12:47:56;;;;;;;3.50;1.95;;;12.70;99.90;;;;;;5008994;28;20092;-93
2021/10/24 12:50:28;;;;;;;;;;;12.60;99.90;;;;;;5009491;28;20038;-90
2021/10/24 12:53:03;;;;;;;3.10;1.42;;;12.70;99.90;;;;;;5009042;28;19910;-91
2021/10/24 12:55:29;;;;;;;4.35;1.17;;;12.80;99.90;;;;;;4996651;28;20092;-90
2021/10/24 12:57:54;;;;;;;3.35;1.48;;;13.00;99.90;;;;;;4989847;28;20061;-89
2021/10/24 13:00:20;;;;;;;4.40;1.52;;;13.00;99.90;;;;;;4989901;28;20062;-89
2021/10/24 13:02:45;;;;;;;3.55;1.33;;;13.00;99.90;;;;;;4989578;28;20042;-90
2021/10/24 13:05:11;;;;;;;5.28;1.55;;;13.00;99.90;;;;;;4988579;28;20061;-91
2021/10/24 13:07:38;;;;;;;4.53;1.60;;;13.10;99.90;;;;;;5011309;28;20029;-90
2021/10/24 13:10:04;;;;;;;4.95;1.20;;;13.10;99.90;;;;;;5009253;28;20034;-91
2021/10/24 13:12:30;;;;;;;4.28;1.65;;;13.10;99.90;;;;;;5009059;28;20042;-91
2021/10/24 13:14:55;;;;;;;6.32;1.67;;;13.00;99.90;;;;;;5008846;28;20126;-91